Time;durP1;ratioP1;P1;durP2;ratioP2;P2;SDS_P1;SDS_P2;PMS_P1;PMS_P2;Temp;Humidity;BMP_temperature;BMP_pressure;BME280_temperature;BME280_humidity;BME280_pressure;Samples;Min_cycle;Max_cycle;Signal;HPM_P1;HPM_P2
2022/03/24 00:00:17;;;;;;;;;;;;;;;;;;1048762;28;2280;-70
2022/03/24 00:01:15;;;;;;;;;;;;;;;;;;1049578;28;4055;-69
2022/03/24 00:01:46;;;;;;;;;;;;;;;;;;1045651;28;3803;-70
2022/03/24 00:02:16;;;;;;;;;;;;;;;;;;1043596;28;2739;-70
2022/03/24 00:02:46;;;;;;;;;;;;;;;;;;1044326;28;3852;-70
2022/03/24 00:03:17;;;;;;;;;;;;;;;;;;1046300;28;1694;-70
2022/03/24 00:03:47;;;;;;;;;;;;;;;;;;1049474;28;3983;-70
2022/03/24 00:04:18;;;;;;;;;;;;;;;;;;1049357;28;2798;-70
2022/03/24 00:04:48;;;;;;;;;;;;;;;;;;1048817;28;3841;-70
2022/03/24 00:05:19;;;;;;;;;;;;;;;;;;1049192;28;4048;-70
2022/03/24 00:05:49;;;;;;;;;;;;;;;;;;1049310;28;3862;-70
2022/03/24 00:06:19;;;;;;;;;;;;;;;;;;1047849;28;2648;-70
2022/03/24 00:06:50;;;;;;;;;;;;;;;;;;1049510;28;4282;-70
2022/03/24 00:07:20;;;;;;;;;;;;;;;;;;1048955;28;1566;-69
2022/03/24 00:07:50;;;;;;;;;;;;;;;;;;1050741;28;3967;-70
2022/03/24 00:08:20;;;;;;;;;;;;;;;;;;1048493;28;2543;-70
2022/03/24 00:08:51;;;;;;;;;;;;;;;;;;1049622;28;3822;-69
2022/03/24 00:09:21;;;;;;;;;;;;;;;;;;1048236;28;2491;-69
2022/03/24 00:09:51;;;;;;;;;;;;;;;;;;1047980;28;3824;-69
2022/03/24 00:10:23;;;;;;;;;;;;;;;;;;1048794;28;2560;-69
2022/03/24 00:10:54;;;;;;;;;;;;;;;;;;1047600;28;3785;-70
2022/03/24 00:11:24;;;;;;;;;;;;;;;;;;1048085;28;2578;-69
2022/03/24 00:11:55;;;;;;;;;;;;;;;;;;1049530;28;3820;-70
2022/03/24 00:12:26;;;;;;;;;;;;;;;;;;1048844;28;2404;-70
2022/03/24 00:12:57;;;;;;;;;;;;;;;;;;1048040;28;3790;-70
2022/03/24 00:13:27;;;;;;;;;;;;;;;;;;1048972;28;2436;-70
2022/03/24 00:13:57;;;;;;;;;;;;;;;;;;1049289;28;3803;-70
2022/03/24 00:14:28;;;;;;;;;;;;;;;;;;1048905;28;2200;-70
2022/03/24 00:14:58;;;;;;;;;;;;;;;;;;1048949;28;3840;-70
2022/03/24 00:15:28;;;;;;;;;;;;;;;;;;1047269;28;2796;-70
2022/03/24 00:15:59;;;;;;;;;;;;;;;;;;1049331;28;3722;-70
2022/03/24 00:16:29;;;;;;;;;;;;;;;;;;1047047;28;3207;-70
2022/03/24 00:17:00;;;;;;;;;;;;;;;;;;1048636;28;3773;-70
2022/03/24 00:17:30;;;;;;;;;;;;;;;;;;1047279;28;2997;-69
2022/03/24 00:18:01;;;;;;;;;;;;;;;;;;1049008;28;3785;-70
2022/03/24 00:18:32;;;;;;;;;;;;;;;;;;1048827;28;3807;-70
2022/03/24 00:19:02;;;;;;;;;;;;;;;;;;1047635;28;2928;-70
2022/03/24 00:19:32;;;;;;;;;;;;;;;;;;1048084;28;4004;-70
2022/03/24 00:20:03;;;;;;;;;;;;;;;;;;1046436;28;3104;-70
2022/03/24 00:20:34;;;;;;;;;;;;;;;;;;1047713;28;3902;-70
2022/03/24 00:21:05;;;;;;;;;;;;;;;;;;1049176;28;2561;-70
2022/03/24 00:21:35;;;;;;;;;;;;;;;;;;1048093;28;3968;-70
2022/03/24 00:22:05;;;;;;;;;;;;;;;;;;1049928;28;2138;-70
2022/03/24 00:22:36;;;;;;;;;;;;;;;;;;1048711;28;3896;-70
2022/03/24 00:23:06;;;;;;;;;;;;;;;;;;1048818;28;1812;-70
2022/03/24 00:23:36;;;;;;;;;;;;;;;;;;1048285;28;3798;-69
2022/03/24 00:24:08;;;;;;;;;;;;;;;;;;1049078;28;2119;-70
2022/03/24 00:24:39;;;;;;;;;;;;;;;;;;1047633;28;3807;-70
2022/03/24 00:25:10;;;;;;;;;;;;;;;;;;1049971;28;2303;-69
2022/03/24 00:25:40;;;;;;;;;;;;;;;;;;1049703;28;3808;-69
2022/03/24 00:26:11;;;;;;;;;;;;;;;;;;1050227;28;2155;-70
2022/03/24 00:26:42;;;;;;;;;;;;;;;;;;1048264;28;3973;-69
2022/03/24 00:27:12;;;;;;;;;;;;;;;;;;1050774;28;1605;-70
2022/03/24 00:27:42;;;;;;;;;;;;;;;;;;1048099;28;3850;-71
2022/03/24 00:28:12;;;;;;;;;;;;;;;;;;1049602;28;2167;-69
2022/03/24 00:28:43;;;;;;;;;;;;;;;;;;1048917;28;3798;-70
2022/03/24 00:29:13;;;;;;;;;;;;;;;;;;1049618;28;2817;-70
2022/03/24 00:29:45;;;;;;;;;;;;;;;;;;1045407;28;3818;-70
2022/03/24 00:30:15;;;;;;;;;;;;;;;;;;1049285;28;2127;-70
2022/03/24 00:30:45;;;;;;;;;;;;;;;;;;1048094;28;3783;-70
2022/03/24 00:31:16;;;;;;;;;;;;;;;;;;1049333;28;2504;-70
2022/03/24 00:31:46;;;;;;;;;;;;;;;;;;1047594;28;3905;-70
2022/03/24 00:32:16;;;;;;;;;;;;;;;;;;1047855;28;2710;-70
2022/03/24 00:32:46;;;;;;;;;;;;;;;;;;1047483;28;3807;-70
2022/03/24 00:33:32;;;;;;;;;;;;;;;;;;1044963;28;2474;-70
2022/03/24 00:34:15;;;;;;;;;;;;;;;;;;1049714;28;3721;-70
2022/03/24 00:34:46;;;;;;;;;;;;;;;;;;1043179;28;3850;-70
2022/03/24 00:35:16;;;;;;;;;;;;;;;;;;1048135;28;2665;-70
2022/03/24 00:35:46;;;;;;;;;;;;;;;;;;1049037;28;4230;-70
2022/03/24 00:36:16;;;;;;;;;;;;;;;;;;1048186;28;2305;-70
2022/03/24 00:36:47;;;;;;;;;;;;;;;;;;1049337;28;3951;-70
2022/03/24 00:37:17;;;;;;;;;;;;;;;;;;1049461;28;2412;-70
2022/03/24 00:37:47;;;;;;;;;;;;;;;;;;1048790;28;3793;-70
2022/03/24 00:38:17;;;;;;;;;;;;;;;;;;1049235;28;1509;-70
2022/03/24 00:38:52;;;;;;;;;;;;;;;;;;1049127;28;3826;-70
2022/03/24 00:39:22;;;;;;;;;;;;;;;;;;1048105;28;2807;-70
2022/03/24 00:39:53;;;;;;;;;;;;;;;;;;1046318;28;3822;-70
2022/03/24 00:40:23;;;;;;;;;;;;;;;;;;1047159;28;2977;-70
2022/03/24 00:40:54;;;;;;;;;;;;;;;;;;1048057;28;3765;-70
2022/03/24 00:41:24;;;;;;;;;;;;;;;;;;1050192;28;2549;-70
2022/03/24 00:41:54;;;;;;;;;;;;;;;;;;1048634;28;3778;-70
2022/03/24 00:42:25;;;;;;;;;;;;;;;;;;1048786;28;2831;-69
2022/03/24 00:42:55;;;;;;;;;;;;;;;;;;1049160;28;3781;-70
2022/03/24 00:43:25;;;;;;;;;;;;;;;;;;1049325;28;1586;-69
2022/03/24 00:43:56;;;;;;;;;;;;;;;;;;1049138;28;3826;-70
2022/03/24 00:44:26;;;;;;;;;;;;;;;;;;1049658;28;1937;-70
2022/03/24 00:44:57;;;;;;;;;;;;;;;;;;1048431;28;3804;-69
2022/03/24 00:45:27;;;;;;;;;;;;;;;;;;1049145;28;1862;-70
2022/03/24 00:46:05;;;;;;;;;;;;;;;;;;1048091;28;3776;-70
2022/03/24 00:46:36;;;;;;;;;;;;;;;;;;1048045;28;3860;-70
2022/03/24 00:47:06;;;;;;;;;;;;;;;;;;1049376;28;1828;-70
2022/03/24 00:47:36;;;;;;;;;;;;;;;;;;1048531;28;3805;-70
2022/03/24 00:48:08;;;;;;;;;;;;;;;;;;1048706;28;2442;-70
2022/03/24 00:48:41;;;;;;;;;;;;;;;;;;1047363;28;3769;-70
2022/03/24 00:49:11;;;;;;;;;;;;;;;;;;1049268;28;2572;-70
2022/03/24 00:49:42;;;;;;;;;;;;;;;;;;1048880;28;3805;-70
2022/03/24 00:50:13;;;;;;;;;;;;;;;;;;1047979;28;3051;-70
2022/03/24 00:50:44;;;;;;;;;;;;;;;;;;1046893;28;3892;-70
2022/03/24 00:51:15;;;;;;;;;;;;;;;;;;1048099;28;2639;-70
2022/03/24 00:51:45;;;;;;;;;;;;;;;;;;1048985;28;3834;-70
2022/03/24 00:52:15;;;;;;;;;;;;;;;;;;1050249;28;1662;-69
2022/03/24 00:52:46;;;;;;;;;;;;;;;;;;1048845;28;3801;-69
2022/03/24 00:53:16;;;;;;;;;;;;;;;;;;1049625;28;1697;-70
2022/03/24 00:53:53;;;;;;;;;;;;;;;;;;1047967;28;3842;-69
2022/03/24 00:54:23;;;;;;;;;;;;;;;;;;1048965;28;2056;-70
2022/03/24 00:54:54;;;;;;;;;;;;;;;;;;1048361;28;4066;-70
2022/03/24 00:55:24;;;;;;;;;;;;;;;;;;1048036;28;3289;-70
2022/03/24 00:55:56;;;;;;;;;;;;;;;;;;1048380;28;3793;-70
2022/03/24 00:56:26;;;;;;;;;;;;;;;;;;1049967;28;2597;-70
2022/03/24 00:56:56;;;;;;;;;;;;;;;;;;1050201;28;3745;-70
2022/03/24 00:57:27;;;;;;;;;;;;;;;;;;1049231;28;2799;-70
2022/03/24 00:57:57;;;;;;;;;;;;;;;;;;1048675;28;3787;-70
2022/03/24 00:58:28;;;;;;;;;;;;;;;;;;1048412;28;1833;-70
2022/03/24 00:58:58;;;;;;;;;;;;;;;;;;1048667;28;3733;-70
2022/03/24 00:59:29;;;;;;;;;;;;;;;;;;1047977;28;2869;-70
2022/03/24 00:59:59;;;;;;;;;;;;;;;;;;1048348;28;3940;-70
2022/03/24 01:00:30;;;;;;;;;;;;;;;;;;1049885;28;2799;-70
2022/03/24 01:01:02;;;;;;;;;;;;;;;;;;1049379;28;3748;-70
2022/03/24 01:01:32;;;;;;;;;;;;;;;;;;1047045;28;3842;-70
2022/03/24 01:02:03;;;;;;;;;;;;;;;;;;1048595;28;2225;-70
2022/03/24 01:02:37;;;;;;;;;;;;;;;;;;1048979;28;3777;-70
2022/03/24 01:03:09;;;;;;;;;;;;;;;;;;1049516;28;2728;-70
2022/03/24 01:03:39;;;;;;;;;;;;;;;;;;1048933;28;3949;-70
2022/03/24 01:04:10;;;;;;;;;;;;;;;;;;1049190;28;1784;-69
2022/03/24 01:04:41;;;;;;;;;;;;;;;;;;1048656;28;3797;-70
2022/03/24 01:05:15;;;;;;;;;;;;;;;;;;1049411;28;2362;-70
2022/03/24 01:05:47;;;;;;;;;;;;;;;;;;1048461;28;3825;-70
2022/03/24 01:06:18;;;;;;;;;;;;;;;;;;1047191;28;2119;-70
2022/03/24 01:06:49;;;;;;;;;;;;;;;;;;1044407;28;3804;-70
2022/03/24 01:07:19;;;;;;;;;;;;;;;;;;1044021;28;4086;-70
2022/03/24 01:07:49;;;;;;;;;;;;;;;;;;1045465;28;3826;-70
2022/03/24 01:08:22;;;;;;;;;;;;;;;;;;1047442;28;2540;-70
2022/03/24 01:08:52;;;;;;;;;;;;;;;;;;1048487;28;3805;-70
2022/03/24 01:09:22;;;;;;;;;;;;;;;;;;1048694;28;3039;-70
2022/03/24 01:09:52;;;;;;;;;;;;;;;;;;1047416;28;3805;-70
2022/03/24 01:10:23;;;;;;;;;;;;;;;;;;1049196;28;2699;-71
2022/03/24 01:10:55;;;;;;;;;;;;;;;;;;1049252;28;3926;-70
2022/03/24 01:11:25;;;;;;;;;;;;;;;;;;1049401;28;1909;-70
2022/03/24 01:11:56;;;;;;;;;;;;;;;;;;1048262;28;3897;-70
2022/03/24 01:12:26;;;;;;;;;;;;;;;;;;1049514;28;1841;-70
2022/03/24 01:12:59;;;;;;;;;;;;;;;;;;1049551;28;3748;-70
2022/03/24 01:13:30;;;;;;;;;;;;;;;;;;1049707;28;2052;-70
2022/03/24 01:14:01;;;;;;;;;;;;;;;;;;1048618;28;3859;-70
2022/03/24 01:14:35;;;;;;;;;;;;;;;;;;1048120;28;3821;-70
2022/03/24 01:15:07;;;;;;;;;;;;;;;;;;1046548;28;1736;-70
2022/03/24 01:15:38;;;;;;;;;;;;;;;;;;1048639;28;3935;-70
2022/03/24 01:16:09;;;;;;;;;;;;;;;;;;1048920;28;2116;-70
2022/03/24 01:16:40;;;;;;;;;;;;;;;;;;1047702;28;3884;-69
2022/03/24 01:17:10;;;;;;;;;;;;;;;;;;1050242;28;1647;-70
2022/03/24 01:17:41;;;;;;;;;;;;;;;;;;1048114;28;3809;-70
2022/03/24 01:18:14;;;;;;;;;;;;;;;;;;1050219;28;2701;-70
2022/03/24 01:18:45;;;;;;;;;;;;;;;;;;1046386;28;3953;-70
2022/03/24 01:19:15;;;;;;;;;;;;;;;;;;1049375;28;2343;-70
2022/03/24 01:19:45;;;;;;;;;;;;;;;;;;1046738;28;3819;-70
2022/03/24 01:20:16;;;;;;;;;;;;;;;;;;1048823;28;2771;-70
2022/03/24 01:20:46;;;;;;;;;;;;;;;;;;1048593;28;3845;-71
2022/03/24 01:21:17;;;;;;;;;;;;;;;;;;1049831;28;2296;-70
2022/03/24 01:21:47;;;;;;;;;;;;;;;;;;1048121;28;3802;-70
2022/03/24 01:22:17;;;;;;;;;;;;;;;;;;1046949;28;2288;-70
2022/03/24 01:22:48;;;;;;;;;;;;;;;;;;1049550;28;3793;-70
2022/03/24 01:23:19;;;;;;;;;;;;;;;;;;1050025;28;1641;-71
2022/03/24 01:23:49;;;;;;;;;;;;;;;;;;1049712;28;3861;-70
2022/03/24 01:24:19;;;;;;;;;;;;;;;;;;1047899;28;2809;-71
2022/03/24 01:24:50;;;;;;;;;;;;;;;;;;1046848;28;3808;-71
2022/03/24 01:25:20;;;;;;;;;;;;;;;;;;1048520;28;2888;-70
2022/03/24 01:25:50;;;;;;;;;;;;;;;;;;1049567;28;3806;-70
2022/03/24 01:26:22;;;;;;;;;;;;;;;;;;1047747;28;2779;-70
2022/03/24 01:26:52;;;;;;;;;;;;;;;;;;1045080;28;3971;-70
2022/03/24 01:27:27;;;;;;;;;;;;;;;;;;1046817;28;1671;-70
2022/03/24 01:27:58;;;;;;;;;;;;;;;;;;1047506;28;4454;-70
2022/03/24 01:28:28;;;;;;;;;;;;;;;;;;1048663;28;2448;-70
2022/03/24 01:28:59;;;;;;;;;;;;;;;;;;1048901;28;3793;-70
2022/03/24 01:29:29;;;;;;;;;;;;;;;;;;1048942;28;2895;-70
2022/03/24 01:30:00;;;;;;;;;;;;;;;;;;1047540;28;3949;-71
2022/03/24 01:30:31;;;;;;;;;;;;;;;;;;1047891;28;2451;-70
2022/03/24 01:31:01;;;;;;;;;;;;;;;;;;1049675;28;3602;-70
2022/03/24 01:31:33;;;;;;;;;;;;;;;;;;1048929;28;4125;-69
2022/03/24 01:32:03;;;;;;;;;;;;;;;;;;1048486;28;1588;-70
2022/03/24 01:32:34;;;;;;;;;;;;;;;;;;1048442;28;3809;-70
2022/03/24 01:33:05;;;;;;;;;;;;;;;;;;1049502;28;2108;-70
2022/03/24 01:33:42;;;;;;;;;;;;;;;;;;1046064;28;3801;-70
2022/03/24 01:34:19;;;;;;;;;;;;;;;;;;1045630;28;3209;-70
2022/03/24 01:34:50;;;;;;;;;;;;;;;;;;1038951;28;3778;-70
2022/03/24 01:35:21;;;;;;;;;;;;;;;;;;1041254;28;2821;-70
2022/03/24 01:35:52;;;;;;;;;;;;;;;;;;1045310;28;3808;-70
2022/03/24 01:36:22;;;;;;;;;;;;;;;;;;1044013;28;2839;-70
2022/03/24 01:36:52;;;;;;;;;;;;;;;;;;1044291;28;3986;-70
2022/03/24 01:37:23;;;;;;;;;;;;;;;;;;1045592;28;1871;-70
2022/03/24 01:37:53;;;;;;;;;;;;;;;;;;1044771;28;3812;-70
2022/03/24 01:38:24;;;;;;;;;;;;;;;;;;1044578;28;1798;-70
2022/03/24 01:38:54;;;;;;;;;;;;;;;;;;1043915;28;3810;-70
2022/03/24 01:39:24;;;;;;;;;;;;;;;;;;1043663;28;2822;-70
2022/03/24 01:39:55;;;;;;;;;;;;;;;;;;1043597;28;3788;-70
2022/03/24 01:40:25;;;;;;;;;;;;;;;;;;1045514;28;2040;-70
2022/03/24 01:40:58;;;;;;;;;;;;;;;;;;1044851;28;3903;-70
2022/03/24 01:41:28;;;;;;;;;;;;;;;;;;1044227;28;2493;-70
2022/03/24 01:42:00;;;;;;;;;;;;;;;;;;1045806;28;3740;-71
2022/03/24 01:42:33;;;;;;;;;;;;;;;;;;1043841;28;2804;-70
2022/03/24 01:43:05;;;;;;;;;;;;;;;;;;1045277;28;3670;-70
2022/03/24 01:43:36;;;;;;;;;;;;;;;;;;1042868;28;3832;-71
2022/03/24 01:44:13;;;;;;;;;;;;;;;;;;1045296;28;2230;-70
2022/03/24 01:44:47;;;;;;;;;;;;;;;;;;1044125;28;3803;-70
2022/03/24 01:45:19;;;;;;;;;;;;;;;;;;1044165;28;2117;-70
2022/03/24 01:45:49;;;;;;;;;;;;;;;;;;1044353;28;3785;-70
2022/03/24 01:46:26;;;;;;;;;;;;;;;;;;1044388;28;2549;-70
2022/03/24 01:47:05;;;;;;;;;;;;;;;;;;1045315;28;5167;-70
2022/03/24 01:47:35;;;;;;;;;;;;;;;;;;1043256;28;3798;-70
2022/03/24 01:48:09;;;;;;;;;;;;;;;;;;1045080;28;2412;-70
2022/03/24 01:48:40;;;;;;;;;;;;;;;;;;1043282;28;3796;-70
2022/03/24 01:49:11;;;;;;;;;;;;;;;;;;1045798;28;2094;-70
2022/03/24 01:49:42;;;;;;;;;;;;;;;;;;1042844;28;3819;-70
2022/03/24 01:50:13;;;;;;;;;;;;;;;;;;1044252;28;2919;-71
2022/03/24 01:50:43;;;;;;;;;;;;;;;;;;1044836;28;3880;-70
2022/03/24 01:51:13;;;;;;;;;;;;;;;;;;1044494;28;2813;-70
2022/03/24 01:51:44;;;;;;;;;;;;;;;;;;1044534;28;3831;-70
2022/03/24 01:52:15;;;;;;;;;;;;;;;;;;1044773;28;2817;-70
2022/03/24 01:52:46;;;;;;;;;;;;;;;;;;1045543;28;3848;-70
2022/03/24 01:53:18;;;;;;;;;;;;;;;;;;1044419;28;2243;-70
2022/03/24 01:53:48;;;;;;;;;;;;;;;;;;1041233;28;3804;-70
2022/03/24 01:54:19;;;;;;;;;;;;;;;;;;1041018;28;2256;-71
2022/03/24 01:54:52;;;;;;;;;;;;;;;;;;1040653;28;3852;-70
2022/03/24 01:55:23;;;;;;;;;;;;;;;;;;1041326;28;1983;-70
2022/03/24 01:55:54;;;;;;;;;;;;;;;;;;1044461;28;3821;-70
2022/03/24 01:56:25;;;;;;;;;;;;;;;;;;1041548;28;2364;-70
2022/03/24 01:56:56;;;;;;;;;;;;;;;;;;1042538;28;3792;-70
2022/03/24 01:57:28;;;;;;;;;;;;;;;;;;1043445;28;3046;-69
2022/03/24 01:57:59;;;;;;;;;;;;;;;;;;1043374;28;3798;-70
2022/03/24 01:58:29;;;;;;;;;;;;;;;;;;1043424;28;2302;-70
2022/03/24 01:59:00;;;;;;;;;;;;;;;;;;1044393;28;3727;-70
2022/03/24 01:59:31;;;;;;;;;;;;;;;;;;1046218;28;2576;-70
2022/03/24 02:00:02;;;;;;;;;;;;;;;;;;1045415;28;4986;-70
2022/03/24 02:00:33;;;;;;;;;;;;;;;;;;1044010;28;4028;-69
2022/03/24 02:01:25;;;;;;;;;;;;;;;;;;1045074;28;2408;-70
2022/03/24 02:01:57;;;;;;;;;;;;;;;;;;1044289;28;3777;-70
2022/03/24 02:02:28;;;;;;;;;;;;;;;;;;1044709;28;2362;-70
2022/03/24 02:03:04;;;;;;;;;;;;;;;;;;1044896;28;3756;-70
2022/03/24 02:03:36;;;;;;;;;;;;;;;;;;1044128;28;3862;-71
2022/03/24 02:04:08;;;;;;;;;;;;;;;;;;1045809;28;2036;-71
2022/03/24 02:04:38;;;;;;;;;;;;;;;;;;1044836;28;3831;-70
2022/03/24 02:05:09;;;;;;;;;;;;;;;;;;1046949;28;1794;-70
2022/03/24 02:05:40;;;;;;;;;;;;;;;;;;1045520;28;3879;-70
2022/03/24 02:06:10;;;;;;;;;;;;;;;;;;1045361;28;2478;-71
2022/03/24 02:06:40;;;;;;;;;;;;;;;;;;1045935;28;3767;-71
2022/03/24 02:07:11;;;;;;;;;;;;;;;;;;1044812;28;3073;-70
2022/03/24 02:07:42;;;;;;;;;;;;;;;;;;1045624;28;3955;-70
2022/03/24 02:08:12;;;;;;;;;;;;;;;;;;1045473;28;3196;-70
2022/03/24 02:08:43;;;;;;;;;;;;;;;;;;1044241;28;3804;-70
2022/03/24 02:09:13;;;;;;;;;;;;;;;;;;1050729;28;2392;-71
2022/03/24 02:09:43;;;;;;;;;;;;;;;;;;1048899;28;4052;-70
2022/03/24 02:10:14;;;;;;;;;;;;;;;;;;1045297;28;2781;-70
2022/03/24 02:10:44;;;;;;;;;;;;;;;;;;1044874;28;3818;-71
2022/03/24 02:11:14;;;;;;;;;;;;;;;;;;1045009;28;2619;-71
2022/03/24 02:11:45;;;;;;;;;;;;;;;;;;1040066;28;3858;-71
2022/03/24 02:12:15;;;;;;;;;;;;;;;;;;1044578;28;2804;-70
2022/03/24 02:12:46;;;;;;;;;;;;;;;;;;1044369;28;3862;-70
2022/03/24 02:13:16;;;;;;;;;;;;;;;;;;1046747;28;3179;-70
2022/03/24 02:13:46;;;;;;;;;;;;;;;;;;1044458;28;3962;-70
2022/03/24 02:14:17;;;;;;;;;;;;;;;;;;1045087;28;2999;-70
2022/03/24 02:14:47;;;;;;;;;;;;;;;;;;1045377;28;3816;-70
2022/03/24 02:15:18;;;;;;;;;;;;;;;;;;1045505;28;2579;-70
2022/03/24 02:15:49;;;;;;;;;;;;;;;;;;1042181;28;3819;-70
2022/03/24 02:16:19;;;;;;;;;;;;;;;;;;1046682;28;1831;-70
2022/03/24 02:16:49;;;;;;;;;;;;;;;;;;1044248;28;3816;-70
2022/03/24 02:17:20;;;;;;;;;;;;;;;;;;1045513;28;2819;-71
2022/03/24 02:17:51;;;;;;;;;;;;;;;;;;1045505;28;3779;-70
2022/03/24 02:18:22;;;;;;;;;;;;;;;;;;1045474;28;2385;-70
2022/03/24 02:18:54;;;;;;;;;;;;;;;;;;1046310;28;4190;-71
2022/03/24 02:19:25;;;;;;;;;;;;;;;;;;1045179;28;2827;-71
2022/03/24 02:19:57;;;;;;;;;;;;;;;;;;1045468;28;4106;-70
2022/03/24 02:20:33;;;;;;;;;;;;;;;;;;1044722;28;2454;-70
2022/03/24 02:21:03;;;;;;;;;;;;;;;;;;1044537;28;3626;-70
2022/03/24 02:21:33;;;;;;;;;;;;;;;;;;1043258;28;3811;-70
2022/03/24 02:22:13;;;;;;;;;;;;;;;;;;1043539;28;2458;-71
2022/03/24 02:22:44;;;;;;;;;;;;;;;;;;1045247;28;3790;-70
2022/03/24 02:23:15;;;;;;;;;;;;;;;;;;1045878;28;2529;-70
2022/03/24 02:23:45;;;;;;;;;;;;;;;;;;1045427;28;4410;-70
2022/03/24 02:24:17;;;;;;;;;;;;;;;;;;1045054;28;2515;-70
2022/03/24 02:24:47;;;;;;;;;;;;;;;;;;1044949;28;3871;-70
2022/03/24 02:25:18;;;;;;;;;;;;;;;;;;1044721;28;2519;-70
2022/03/24 02:25:49;;;;;;;;;;;;;;;;;;1046582;28;3844;-70
2022/03/24 02:26:19;;;;;;;;;;;;;;;;;;1046499;28;1996;-71
2022/03/24 02:26:51;;;;;;;;;;;;;;;;;;1044873;28;3795;-70
2022/03/24 02:27:23;;;;;;;;;;;;;;;;;;1044869;28;1974;-70
2022/03/24 02:27:55;;;;;;;;;;;;;;;;;;1045934;28;3792;-70
2022/03/24 02:28:25;;;;;;;;;;;;;;;;;;1046037;28;2876;-70
2022/03/24 02:28:56;;;;;;;;;;;;;;;;;;1046942;28;3770;-70
2022/03/24 02:29:27;;;;;;;;;;;;;;;;;;1044602;28;2633;-71
2022/03/24 02:29:57;;;;;;;;;;;;;;;;;;1045747;28;3779;-71
2022/03/24 02:30:29;;;;;;;;;;;;;;;;;;1044015;28;2850;-70
2022/03/24 02:31:07;;;;;;;;;;;;;;;;;;1045218;28;3837;-70
2022/03/24 02:31:38;;;;;;;;;;;;;;;;;;1045226;28;3773;-70
2022/03/24 02:32:11;;;;;;;;;;;;;;;;;;1040635;28;2609;-70
2022/03/24 02:32:41;;;;;;;;;;;;;;;;;;1045086;28;3795;-71
2022/03/24 02:33:12;;;;;;;;;;;;;;;;;;1045972;28;1687;-70
2022/03/24 02:34:37;;;;;;;;;;;;;;;;;;1047533;28;3879;-70
2022/03/24 02:34:51;;;;;;;;;;;;;;;;;;1051687;28;3783;-70
2022/03/24 02:35:28;;;;;;;;;;;;;;;;;;1049068;28;3434;-70
2022/03/24 02:36:00;;;;;;;;;;;;;;;;;;1050419;28;3820;-71
2022/03/24 02:36:36;;;;;;;;;;;;;;;;;;1048529;28;2860;-70
2022/03/24 02:37:08;;;;;;;;;;;;;;;;;;1051747;28;3765;-70
2022/03/24 02:37:38;;;;;;;;;;;;;;;;;;1052214;28;3898;-70
2022/03/24 02:38:09;;;;;;;;;;;;;;;;;;1054373;28;2165;-71
2022/03/24 02:38:39;;;;;;;;;;;;;;;;;;1048699;28;3933;-70
2022/03/24 02:39:10;;;;;;;;;;;;;;;;;;1050393;28;2251;-71
2022/03/24 02:39:42;;;;;;;;;;;;;;;;;;1048806;28;3772;-70
2022/03/24 02:40:13;;;;;;;;;;;;;;;;;;1050788;28;1914;-69
2022/03/24 02:40:44;;;;;;;;;;;;;;;;;;1051694;28;3997;-70
2022/03/24 02:41:15;;;;;;;;;;;;;;;;;;1053725;28;2699;-70
2022/03/24 02:41:46;;;;;;;;;;;;;;;;;;1043193;28;3856;-70
2022/03/24 02:42:18;;;;;;;;;;;;;;;;;;1041897;28;2817;-71
2022/03/24 02:42:48;;;;;;;;;;;;;;;;;;1040932;28;3882;-71
2022/03/24 02:43:19;;;;;;;;;;;;;;;;;;1042450;28;2473;-71
2022/03/24 02:43:50;;;;;;;;;;;;;;;;;;1050635;28;3860;-70
2022/03/24 02:44:29;;;;;;;;;;;;;;;;;;1053003;28;2469;-70
2022/03/24 02:45:02;;;;;;;;;;;;;;;;;;1054615;28;3853;-71
2022/03/24 02:45:32;;;;;;;;;;;;;;;;;;1053316;28;3813;-70
2022/03/24 02:46:02;;;;;;;;;;;;;;;;;;1055506;28;3018;-69
2022/03/24 02:46:33;;;;;;;;;;;;;;;;;;1052008;28;3796;-71
2022/03/24 02:47:05;;;;;;;;;;;;;;;;;;1054391;28;2785;-70
2022/03/24 02:47:36;;;;;;;;;;;;;;;;;;1052992;28;4107;-70
2022/03/24 02:48:07;;;;;;;;;;;;;;;;;;1051993;28;2569;-72
2022/03/24 02:48:37;;;;;;;;;;;;;;;;;;1046454;28;3865;-71
2022/03/24 02:49:08;;;;;;;;;;;;;;;;;;1048790;28;2590;-70
2022/03/24 02:49:39;;;;;;;;;;;;;;;;;;1047789;28;3829;-71
2022/03/24 02:50:10;;;;;;;;;;;;;;;;;;1050017;28;2735;-71
2022/03/24 02:50:40;;;;;;;;;;;;;;;;;;1052290;28;3790;-70
2022/03/24 02:51:10;;;;;;;;;;;;;;;;;;1045688;28;2178;-71
2022/03/24 02:51:40;;;;;;;;;;;;;;;;;;1046274;28;4310;-70
2022/03/24 02:52:11;;;;;;;;;;;;;;;;;;1044707;28;2888;-70
2022/03/24 02:52:41;;;;;;;;;;;;;;;;;;1045517;28;3973;-70
2022/03/24 02:53:12;;;;;;;;;;;;;;;;;;1050249;28;2577;-70
2022/03/24 02:53:42;;;;;;;;;;;;;;;;;;1049669;28;3808;-70
2022/03/24 02:54:13;;;;;;;;;;;;;;;;;;1051486;28;1580;-70
2022/03/24 02:54:43;;;;;;;;;;;;;;;;;;1050692;28;3977;-71
2022/03/24 02:55:14;;;;;;;;;;;;;;;;;;1054123;28;2708;-70
2022/03/24 02:55:44;;;;;;;;;;;;;;;;;;1052899;28;3853;-71
2022/03/24 02:56:14;;;;;;;;;;;;;;;;;;1053790;28;2682;-70
2022/03/24 02:56:45;;;;;;;;;;;;;;;;;;1052718;28;3864;-70
2022/03/24 02:57:16;;;;;;;;;;;;;;;;;;1053648;28;2900;-70
2022/03/24 02:57:46;;;;;;;;;;;;;;;;;;1053799;28;3880;-69
2022/03/24 02:58:16;;;;;;;;;;;;;;;;;;1053187;28;2016;-71
2022/03/24 02:58:47;;;;;;;;;;;;;;;;;;1053392;28;3801;-70
2022/03/24 02:59:17;;;;;;;;;;;;;;;;;;1054976;28;1864;-70
2022/03/24 02:59:47;;;;;;;;;;;;;;;;;;1053526;28;3892;-70
2022/03/24 03:00:18;;;;;;;;;;;;;;;;;;1053741;28;2156;-69
2022/03/24 03:00:48;;;;;;;;;;;;;;;;;;1053555;28;3825;-71
2022/03/24 03:01:19;;;;;;;;;;;;;;;;;;1054462;28;2156;-71
2022/03/24 03:02:02;;;;;;;;;;;;;;;;;;1052967;28;3987;-70
2022/03/24 03:02:32;;;;;;;;;;;;;;;;;;1049540;28;3838;-70
2022/03/24 03:03:02;;;;;;;;;;;;;;;;;;1050136;28;1412;-70
2022/03/24 03:03:33;;;;;;;;;;;;;;;;;;1049534;28;3907;-70
2022/03/24 03:04:05;;;;;;;;;;;;;;;;;;1050208;28;2130;-71
2022/03/24 03:04:35;;;;;;;;;;;;;;;;;;1052968;28;3825;-70
2022/03/24 03:05:06;;;;;;;;;;;;;;;;;;1053597;28;2658;-71
2022/03/24 03:05:36;;;;;;;;;;;;;;;;;;1049221;28;3868;-70
2022/03/24 03:06:06;;;;;;;;;;;;;;;;;;1051297;28;2316;-71
2022/03/24 03:06:37;;;;;;;;;;;;;;;;;;1049162;28;3806;-70
2022/03/24 03:07:07;;;;;;;;;;;;;;;;;;1048559;28;2961;-71
2022/03/24 03:07:38;;;;;;;;;;;;;;;;;;1049646;28;3812;-70
2022/03/24 03:08:08;;;;;;;;;;;;;;;;;;1053781;28;2015;-70
2022/03/24 03:08:39;;;;;;;;;;;;;;;;;;1053810;28;3983;-71
2022/03/24 03:09:09;;;;;;;;;;;;;;;;;;1053847;28;2521;-70
2022/03/24 03:09:40;;;;;;;;;;;;;;;;;;1051968;28;3809;-71
2022/03/24 03:10:11;;;;;;;;;;;;;;;;;;1053186;28;2418;-71
2022/03/24 03:10:41;;;;;;;;;;;;;;;;;;1048081;28;3826;-69
2022/03/24 03:11:11;;;;;;;;;;;;;;;;;;1045986;28;1931;-71
2022/03/24 03:11:45;;;;;;;;;;;;;;;;;;1045794;28;3861;-71
2022/03/24 03:12:16;;;;;;;;;;;;;;;;;;1046691;28;2567;-70
2022/03/24 03:12:46;;;;;;;;;;;;;;;;;;1051269;28;3792;-70
2022/03/24 03:13:17;;;;;;;;;;;;;;;;;;1053397;28;1619;-70
2022/03/24 03:13:47;;;;;;;;;;;;;;;;;;1054027;28;4219;-71
2022/03/24 03:14:18;;;;;;;;;;;;;;;;;;1055177;28;1884;-71
2022/03/24 03:14:49;;;;;;;;;;;;;;;;;;1049378;28;3911;-69
2022/03/24 03:15:19;;;;;;;;;;;;;;;;;;1050212;28;1988;-70
2022/03/24 03:15:49;;;;;;;;;;;;;;;;;;1050027;28;3790;-70
2022/03/24 03:16:19;;;;;;;;;;;;;;;;;;1049670;28;1911;-71
2022/03/24 03:16:50;;;;;;;;;;;;;;;;;;1052371;28;3860;-70
2022/03/24 03:17:21;;;;;;;;;;;;;;;;;;1054006;28;2561;-70
2022/03/24 03:17:51;;;;;;;;;;;;;;;;;;1055137;28;3839;-71
2022/03/24 03:18:21;;;;;;;;;;;;;;;;;;1054478;28;1900;-70
2022/03/24 03:18:51;;;;;;;;;;;;;;;;;;1053470;28;3798;-70
2022/03/24 03:19:22;;;;;;;;;;;;;;;;;;1054309;28;2068;-70
2022/03/24 03:19:52;;;;;;;;;;;;;;;;;;1052383;28;3801;-70
2022/03/24 03:20:24;;;;;;;;;;;;;;;;;;1054821;28;2160;-70
2022/03/24 03:20:54;;;;;;;;;;;;;;;;;;1053746;28;3788;-70
2022/03/24 03:21:25;;;;;;;;;;;;;;;;;;1053986;28;1906;-69
2022/03/24 03:21:55;;;;;;;;;;;;;;;;;;1052927;28;3791;-71
2022/03/24 03:22:32;;;;;;;;;;;;;;;;;;1052026;28;3814;-70
2022/03/24 03:23:03;;;;;;;;;;;;;;;;;;1055114;28;1637;-70
2022/03/24 03:23:36;;;;;;;;;;;;;;;;;;1053617;28;3855;-71
2022/03/24 03:24:07;;;;;;;;;;;;;;;;;;1053952;28;2780;-70
2022/03/24 03:24:39;;;;;;;;;;;;;;;;;;1053543;28;3861;-70
2022/03/24 03:25:09;;;;;;;;;;;;;;;;;;1054103;28;2478;-70
2022/03/24 03:25:40;;;;;;;;;;;;;;;;;;1053101;28;3878;-70
2022/03/24 03:26:11;;;;;;;;;;;;;;;;;;1053495;28;2047;-70
2022/03/24 03:26:42;;;;;;;;;;;;;;;;;;1052928;28;3809;-70
2022/03/24 03:27:12;;;;;;;;;;;;;;;;;;1053477;28;2743;-71
2022/03/24 03:27:43;;;;;;;;;;;;;;;;;;1051059;28;3821;-71
2022/03/24 03:28:13;;;;;;;;;;;;;;;;;;1055134;28;1990;-70
2022/03/24 03:28:44;;;;;;;;;;;;;;;;;;1049484;28;3872;-71
2022/03/24 03:29:14;;;;;;;;;;;;;;;;;;1048662;28;2889;-70
2022/03/24 03:29:45;;;;;;;;;;;;;;;;;;1049823;28;3899;-70
2022/03/24 03:30:15;;;;;;;;;;;;;;;;;;1050419;28;2822;-70
2022/03/24 03:30:46;;;;;;;;;;;;;;;;;;1052536;28;3814;-70
2022/03/24 03:31:16;;;;;;;;;;;;;;;;;;1053932;28;2561;-71
2022/03/24 03:31:46;;;;;;;;;;;;;;;;;;1053803;28;3798;-70
2022/03/24 03:32:17;;;;;;;;;;;;;;;;;;1050131;28;2008;-71
2022/03/24 03:32:47;;;;;;;;;;;;;;;;;;1050346;28;3788;-70
2022/03/24 03:33:17;;;;;;;;;;;;;;;;;;1048860;28;3010;-71
2022/03/24 03:33:55;;;;;;;;;;;;;;;;;;1049822;28;4780;-71
2022/03/24 03:34:32;;;;;;;;;;;;;;;;;;1051212;28;1612;-71
2022/03/24 03:35:03;;;;;;;;;;;;;;;;;;1049087;28;3732;-70
2022/03/24 03:35:34;;;;;;;;;;;;;;;;;;1048371;28;3811;-70
2022/03/24 03:36:04;;;;;;;;;;;;;;;;;;1049654;28;2466;-70
2022/03/24 03:36:35;;;;;;;;;;;;;;;;;;1049524;28;3805;-70
2022/03/24 03:37:05;;;;;;;;;;;;;;;;;;1049522;28;2823;-70
2022/03/24 03:37:38;;;;;;;;;;;;;;;;;;1047139;28;3809;-71